sensor_id;sensor_type;location;lat;lon;timestamp;P1;durP1;ratioP1;P2;durP2;ratioP2
71771;SDS011;59606;52.138;5.424;2023-10-31T00:00:25;1.50;;;0.57;;
71771;SDS011;59606;52.138;5.424;2023-10-31T00:02:52;5.13;;;0.40;;
71771;SDS011;59606;52.138;5.424;2023-10-31T00:05:19;3.85;;;0.63;;
71771;SDS011;59606;52.138;5.424;2023-10-31T00:07:47;2.85;;;0.60;;
71771;SDS011;59606;52.138;5.424;2023-10-31T00:10:14;1.60;;;0.38;;
71771;SDS011;59606;52.138;5.424;2023-10-31T00:12:41;2.00;;;0.40;;
71771;SDS011;59606;52.138;5.424;2023-10-31T00:15:07;2.90;;;0.63;;
71771;SDS011;59606;52.138;5.424;2023-10-31T00:17:34;3.40;;;1.02;;
71771;SDS011;59606;52.138;5.424;2023-10-31T00:20:00;4.38;;;0.47;;
71771;SDS011;59606;52.138;5.424;2023-10-31T00:22:27;0.90;;;0.32;;
71771;SDS011;59606;52.138;5.424;2023-10-31T00:24:54;2.20;;;0.30;;
71771;SDS011;59606;52.138;5.424;2023-10-31T00:27:20;2.42;;;0.40;;
71771;SDS011;59606;52.138;5.424;2023-10-31T00:29:47;3.33;;;0.50;;
71771;SDS011;59606;52.138;5.424;2023-10-31T00:32:13;2.10;;;0.60;;
71771;SDS011;59606;52.138;5.424;2023-10-31T00:34:41;2.78;;;0.75;;
71771;SDS011;59606;52.138;5.424;2023-10-31T00:37:07;3.37;;;1.40;;
71771;SDS011;59606;52.138;5.424;2023-10-31T00:39:34;5.75;;;1.50;;
71771;SDS011;59606;52.138;5.424;2023-10-31T00:42:00;5.63;;;1.80;;
71771;SDS011;59606;52.138;5.424;2023-10-31T00:44:27;5.47;;;2.05;;
71771;SDS011;59606;52.138;5.424;2023-10-31T00:46:53;8.10;;;2.28;;
71771;SDS011;59606;52.138;5.424;2023-10-31T00:49:20;7.80;;;3.23;;
71771;SDS011;59606;52.138;5.424;2023-10-31T00:51:46;10.27;;;2.75;;
71771;SDS011;59606;52.138;5.424;2023-10-31T00:54:13;10.35;;;2.83;;
71771;SDS011;59606;52.138;5.424;2023-10-31T00:56:39;9.80;;;3.40;;
71771;SDS011;59606;52.138;5.424;2023-10-31T00:59:06;10.93;;;3.22;;
71771;SDS011;59606;52.138;5.424;2023-10-31T01:01:32;9.47;;;3.33;;
71771;SDS011;59606;52.138;5.424;2023-10-31T01:03:59;9.20;;;4.00;;
71771;SDS011;59606;52.138;5.424;2023-10-31T01:06:25;7.80;;;3.53;;
71771;SDS011;59606;52.138;5.424;2023-10-31T01:08:52;8.85;;;3.65;;
71771;SDS011;59606;52.138;5.424;2023-10-31T01:11:18;10.07;;;4.00;;
71771;SDS011;59606;52.138;5.424;2023-10-31T01:13:45;9.57;;;3.73;;
71771;SDS011;59606;52.138;5.424;2023-10-31T01:16:12;8.00;;;3.78;;
71771;SDS011;59606;52.138;5.424;2023-10-31T01:18:38;12.30;;;3.97;;
71771;SDS011;59606;52.138;5.424;2023-10-31T01:21:05;10.57;;;3.83;;
71771;SDS011;59606;52.138;5.424;2023-10-31T01:23:31;10.57;;;4.05;;
71771;SDS011;59606;52.138;5.424;2023-10-31T01:25:58;9.03;;;3.80;;
71771;SDS011;59606;52.138;5.424;2023-10-31T01:28:24;8.77;;;3.65;;
71771;SDS011;59606;52.138;5.424;2023-10-31T01:30:51;10.10;;;3.38;;
71771;SDS011;59606;52.138;5.424;2023-10-31T01:33:17;8.40;;;3.45;;
71771;SDS011;59606;52.138;5.424;2023-10-31T01:35:44;8.57;;;3.67;;
71771;SDS011;59606;52.138;5.424;2023-10-31T01:38:10;11.90;;;3.63;;
71771;SDS011;59606;52.138;5.424;2023-10-31T01:40:37;9.65;;;3.72;;
71771;SDS011;59606;52.138;5.424;2023-10-31T01:43:03;10.63;;;3.65;;
71771;SDS011;59606;52.138;5.424;2023-10-31T01:45:31;10.02;;;3.28;;
71771;SDS011;59606;52.138;5.424;2023-10-31T01:47:57;8.00;;;3.20;;
71771;SDS011;59606;52.138;5.424;2023-10-31T01:50:24;8.17;;;3.17;;
71771;SDS011;59606;52.138;5.424;2023-10-31T01:52:51;6.40;;;2.95;;
71771;SDS011;59606;52.138;5.424;2023-10-31T01:55:18;8.20;;;3.53;;
71771;SDS011;59606;52.138;5.424;2023-10-31T01:57:45;11.85;;;3.60;;
71771;SDS011;59606;52.138;5.424;2023-10-31T02:00:13;11.02;;;4.03;;
71771;SDS011;59606;52.138;5.424;2023-10-31T02:02:40;12.40;;;3.80;;
71771;SDS011;59606;52.138;5.424;2023-10-31T02:05:10;10.15;;;3.53;;
71771;SDS011;59606;52.138;5.424;2023-10-31T02:07:37;13.88;;;4.45;;
71771;SDS011;59606;52.138;5.424;2023-10-31T02:10:03;11.95;;;3.92;;
71771;SDS011;59606;52.138;5.424;2023-10-31T02:12:37;9.93;;;3.75;;
71771;SDS011;59606;52.138;5.424;2023-10-31T02:15:04;11.73;;;3.93;;
71771;SDS011;59606;52.138;5.424;2023-10-31T02:17:32;10.05;;;4.80;;
71771;SDS011;59606;52.138;5.424;2023-10-31T02:19:58;10.32;;;3.75;;
71771;SDS011;59606;52.138;5.424;2023-10-31T02:22:25;11.90;;;4.80;;
71771;SDS011;59606;52.138;5.424;2023-10-31T02:24:52;10.68;;;4.50;;
71771;SDS011;59606;52.138;5.424;2023-10-31T02:27:18;9.97;;;4.53;;
71771;SDS011;59606;52.138;5.424;2023-10-31T02:29:45;14.73;;;5.70;;
71771;SDS011;59606;52.138;5.424;2023-10-31T02:32:11;13.38;;;5.32;;
71771;SDS011;59606;52.138;5.424;2023-10-31T02:34:38;13.43;;;5.50;;
71771;SDS011;59606;52.138;5.424;2023-10-31T02:37:05;10.85;;;5.95;;
71771;SDS011;59606;52.138;5.424;2023-10-31T02:39:32;9.97;;;5.20;;
71771;SDS011;59606;52.138;5.424;2023-10-31T02:41:59;12.10;;;5.60;;
71771;SDS011;59606;52.138;5.424;2023-10-31T02:44:25;12.07;;;5.65;;
71771;SDS011;59606;52.138;5.424;2023-10-31T02:46:53;13.70;;;5.03;;
71771;SDS011;59606;52.138;5.424;2023-10-31T02:49:20;13.57;;;4.63;;
71771;SDS011;59606;52.138;5.424;2023-10-31T02:51:47;12.40;;;4.87;;
71771;SDS011;59606;52.138;5.424;2023-10-31T02:54:13;12.60;;;5.15;;
71771;SDS011;59606;52.138;5.424;2023-10-31T02:56:40;9.38;;;4.40;;
71771;SDS011;59606;52.138;5.424;2023-10-31T02:59:06;10.13;;;4.72;;
71771;SDS011;59606;52.138;5.424;2023-10-31T03:01:33;11.60;;;4.70;;
71771;SDS011;59606;52.138;5.424;2023-10-31T03:04:01;13.50;;;3.63;;
71771;SDS011;59606;52.138;5.424;2023-10-31T03:06:28;7.85;;;3.40;;
71771;SDS011;59606;52.138;5.424;2023-10-31T03:08:54;6.97;;;2.45;;
71771;SDS011;59606;52.138;5.424;2023-10-31T03:11:21;12.15;;;3.10;;
71771;SDS011;59606;52.138;5.424;2023-10-31T03:13:51;7.65;;;2.78;;
71771;SDS011;59606;52.138;5.424;2023-10-31T03:16:19;8.73;;;2.67;;
71771;SDS011;59606;52.138;5.424;2023-10-31T03:18:47;5.57;;;2.22;;
71771;SDS011;59606;52.138;5.424;2023-10-31T03:21:13;7.65;;;2.45;;
71771;SDS011;59606;52.138;5.424;2023-10-31T03:23:42;7.00;;;2.60;;
71771;SDS011;59606;52.138;5.424;2023-10-31T03:26:09;5.18;;;2.40;;
71771;SDS011;59606;52.138;5.424;2023-10-31T03:28:36;8.80;;;3.07;;
71771;SDS011;59606;52.138;5.424;2023-10-31T03:31:03;6.20;;;2.33;;
71771;SDS011;59606;52.138;5.424;2023-10-31T03:33:29;8.38;;;2.38;;
71771;SDS011;59606;52.138;5.424;2023-10-31T03:35:56;9.10;;;2.20;;
71771;SDS011;59606;52.138;5.424;2023-10-31T03:38:22;8.32;;;2.85;;
71771;SDS011;59606;52.138;5.424;2023-10-31T03:40:49;9.37;;;2.17;;
71771;SDS011;59606;52.138;5.424;2023-10-31T03:43:15;4.00;;;1.27;;
71771;SDS011;59606;52.138;5.424;2023-10-31T03:45:42;5.82;;;1.70;;
71771;SDS011;59606;52.138;5.424;2023-10-31T03:48:08;7.72;;;1.85;;
71771;SDS011;59606;52.138;5.424;2023-10-31T03:50:35;9.75;;;1.48;;
71771;SDS011;59606;52.138;5.424;2023-10-31T03:53:01;8.03;;;1.23;;
71771;SDS011;59606;52.138;5.424;2023-10-31T03:55:29;5.50;;;1.00;;
71771;SDS011;59606;52.138;5.424;2023-10-31T03:57:58;5.32;;;0.75;;
71771;SDS011;59606;52.138;5.424;2023-10-31T04:00:25;3.30;;;0.80;;
71771;SDS011;59606;52.138;5.424;2023-10-31T04:02:52;2.00;;;0.57;;
71771;SDS011;59606;52.138;5.424;2023-10-31T04:05:19;5.20;;;0.60;;
71771;SDS011;59606;52.138;5.424;2023-10-31T04:07:46;2.80;;;0.60;;
71771;SDS011;59606;52.138;5.424;2023-10-31T04:10:13;2.17;;;0.50;;
71771;SDS011;59606;52.138;5.424;2023-10-31T04:12:40;2.80;;;0.70;;
71771;SDS011;59606;52.138;5.424;2023-10-31T04:15:07;1.15;;;0.50;;
71771;SDS011;59606;52.138;5.424;2023-10-31T04:17:35;2.63;;;0.43;;
71771;SDS011;59606;52.138;5.424;2023-10-31T04:20:03;1.38;;;0.38;;
71771;SDS011;59606;52.138;5.424;2023-10-31T04:22:29;2.42;;;0.40;;
71771;SDS011;59606;52.138;5.424;2023-10-31T04:24:56;2.08;;;0.30;;
71771;SDS011;59606;52.138;5.424;2023-10-31T04:27:22;0.82;;;0.22;;
71771;SDS011;59606;52.138;5.424;2023-10-31T04:29:49;1.27;;;0.37;;
71771;SDS011;59606;52.138;5.424;2023-10-31T04:32:15;0.52;;;0.20;;
71771;SDS011;59606;52.138;5.424;2023-10-31T04:34:42;4.60;;;0.40;;
71771;SDS011;59606;52.138;5.424;2023-10-31T04:37:09;2.40;;;0.35;;
71771;SDS011;59606;52.138;5.424;2023-10-31T04:39:36;4.57;;;0.43;;
71771;SDS011;59606;52.138;5.424;2023-10-31T04:42:02;0.80;;;0.37;;
71771;SDS011;59606;52.138;5.424;2023-10-31T04:44:30;1.23;;;0.30;;
71771;SDS011;59606;52.138;5.424;2023-10-31T04:46:56;1.70;;;0.50;;
71771;SDS011;59606;52.138;5.424;2023-10-31T04:49:23;1.80;;;0.52;;
71771;SDS011;59606;52.138;5.424;2023-10-31T04:51:50;4.32;;;0.50;;
71771;SDS011;59606;52.138;5.424;2023-10-31T04:54:16;1.77;;;0.30;;
71771;SDS011;59606;52.138;5.424;2023-10-31T04:56:43;2.42;;;0.40;;
71771;SDS011;59606;52.138;5.424;2023-10-31T04:59:09;2.47;;;0.40;;
71771;SDS011;59606;52.138;5.424;2023-10-31T05:01:36;3.08;;;0.60;;
71771;SDS011;59606;52.138;5.424;2023-10-31T05:04:03;3.70;;;0.60;;
71771;SDS011;59606;52.138;5.424;2023-10-31T05:06:38;2.00;;;0.50;;
71771;SDS011;59606;52.138;5.424;2023-10-31T05:09:05;4.32;;;0.57;;
71771;SDS011;59606;52.138;5.424;2023-10-31T05:11:32;6.30;;;0.70;;
71771;SDS011;59606;52.138;5.424;2023-10-31T05:13:58;2.72;;;0.57;;
71771;SDS011;59606;52.138;5.424;2023-10-31T05:16:25;2.28;;;0.90;;
71771;SDS011;59606;52.138;5.424;2023-10-31T05:18:52;0.97;;;0.30;;
71771;SDS011;59606;52.138;5.424;2023-10-31T05:21:19;3.47;;;0.80;;
71771;SDS011;59606;52.138;5.424;2023-10-31T05:23:50;0.40;;;0.30;;
71771;SDS011;59606;52.138;5.424;2023-10-31T05:26:16;1.55;;;0.38;;
71771;SDS011;59606;52.138;5.424;2023-10-31T05:28:43;5.38;;;0.50;;
71771;SDS011;59606;52.138;5.424;2023-10-31T05:31:09;2.07;;;0.60;;
71771;SDS011;59606;52.138;5.424;2023-10-31T05:33:36;5.15;;;0.73;;
71771;SDS011;59606;52.138;5.424;2023-10-31T05:36:02;4.85;;;0.80;;
71771;SDS011;59606;52.138;5.424;2023-10-31T05:38:29;4.63;;;0.50;;
71771;SDS011;59606;52.138;5.424;2023-10-31T05:40:56;1.40;;;0.50;;
71771;SDS011;59606;52.138;5.424;2023-10-31T05:43:22;1.87;;;0.40;;
71771;SDS011;59606;52.138;5.424;2023-10-31T05:45:49;2.72;;;0.40;;
71771;SDS011;59606;52.138;5.424;2023-10-31T05:48:15;2.30;;;0.52;;
71771;SDS011;59606;52.138;5.424;2023-10-31T05:50:42;2.55;;;0.70;;
71771;SDS011;59606;52.138;5.424;2023-10-31T05:53:09;4.53;;;0.70;;
71771;SDS011;59606;52.138;5.424;2023-10-31T05:55:40;3.67;;;1.27;;
71771;SDS011;59606;52.138;5.424;2023-10-31T05:58:07;2.35;;;0.80;;
71771;SDS011;59606;52.138;5.424;2023-10-31T06:00:33;2.20;;;1.00;;
71771;SDS011;59606;52.138;5.424;2023-10-31T06:03:01;4.97;;;1.02;;
71771;SDS011;59606;52.138;5.424;2023-10-31T06:05:27;4.47;;;1.38;;
71771;SDS011;59606;52.138;5.424;2023-10-31T06:07:54;4.90;;;1.00;;
71771;SDS011;59606;52.138;5.424;2023-10-31T06:10:21;2.20;;;0.90;;
71771;SDS011;59606;52.138;5.424;2023-10-31T06:12:48;5.03;;;1.70;;
71771;SDS011;59606;52.138;5.424;2023-10-31T06:15:14;5.00;;;1.55;;
71771;SDS011;59606;52.138;5.424;2023-10-31T06:17:41;4.63;;;2.03;;
71771;SDS011;59606;52.138;5.424;2023-10-31T06:20:08;6.83;;;2.60;;
71771;SDS011;59606;52.138;5.424;2023-10-31T06:22:35;7.93;;;2.83;;
71771;SDS011;59606;52.138;5.424;2023-10-31T06:25:01;6.72;;;2.40;;
71771;SDS011;59606;52.138;5.424;2023-10-31T06:27:29;7.88;;;2.65;;
71771;SDS011;59606;52.138;5.424;2023-10-31T06:29:55;6.90;;;3.17;;
71771;SDS011;59606;52.138;5.424;2023-10-31T06:32:42;6.73;;;3.23;;
71771;SDS011;59606;52.138;5.424;2023-10-31T06:35:08;7.38;;;3.05;;
71771;SDS011;59606;52.138;5.424;2023-10-31T06:37:35;8.63;;;3.40;;
71771;SDS011;59606;52.138;5.424;2023-10-31T06:40:05;6.45;;;3.13;;
71771;SDS011;59606;52.138;5.424;2023-10-31T06:42:32;11.10;;;3.03;;
71771;SDS011;59606;52.138;5.424;2023-10-31T06:44:59;9.73;;;3.03;;
71771;SDS011;59606;52.138;5.424;2023-10-31T06:47:25;6.30;;;3.40;;
71771;SDS011;59606;52.138;5.424;2023-10-31T06:49:53;8.73;;;3.00;;
71771;SDS011;59606;52.138;5.424;2023-10-31T06:52:19;7.13;;;2.70;;
71771;SDS011;59606;52.138;5.424;2023-10-31T06:54:46;6.20;;;2.65;;
71771;SDS011;59606;52.138;5.424;2023-10-31T06:57:12;7.40;;;2.70;;
71771;SDS011;59606;52.138;5.424;2023-10-31T06:59:39;6.50;;;2.40;;
71771;SDS011;59606;52.138;5.424;2023-10-31T07:02:05;3.90;;;1.85;;
71771;SDS011;59606;52.138;5.424;2023-10-31T07:04:32;3.63;;;1.70;;
71771;SDS011;59606;52.138;5.424;2023-10-31T07:06:59;4.22;;;1.30;;
71771;SDS011;59606;52.138;5.424;2023-10-31T07:09:26;5.30;;;1.37;;
71771;SDS011;59606;52.138;5.424;2023-10-31T07:11:53;2.88;;;1.38;;
71771;SDS011;59606;52.138;5.424;2023-10-31T07:14:19;3.92;;;1.40;;
71771;SDS011;59606;52.138;5.424;2023-10-31T07:16:47;3.25;;;0.82;;
71771;SDS011;59606;52.138;5.424;2023-10-31T07:19:14;3.70;;;1.05;;
71771;SDS011;59606;52.138;5.424;2023-10-31T07:21:40;4.33;;;0.67;;
71771;SDS011;59606;52.138;5.424;2023-10-31T07:24:09;2.50;;;0.95;;
71771;SDS011;59606;52.138;5.424;2023-10-31T07:26:35;3.00;;;0.75;;
71771;SDS011;59606;52.138;5.424;2023-10-31T07:29:02;1.92;;;0.60;;
71771;SDS011;59606;52.138;5.424;2023-10-31T07:31:28;2.28;;;0.50;;
71771;SDS011;59606;52.138;5.424;2023-10-31T07:33:55;2.20;;;0.50;;
71771;SDS011;59606;52.138;5.424;2023-10-31T07:36:23;1.48;;;0.68;;
71771;SDS011;59606;52.138;5.424;2023-10-31T07:38:49;3.55;;;0.60;;
71771;SDS011;59606;52.138;5.424;2023-10-31T07:41:16;2.25;;;0.50;;
71771;SDS011;59606;52.138;5.424;2023-10-31T07:43:42;1.65;;;0.63;;
71771;SDS011;59606;52.138;5.424;2023-10-31T07:46:09;1.40;;;0.50;;
71771;SDS011;59606;52.138;5.424;2023-10-31T07:48:35;3.08;;;0.70;;
71771;SDS011;59606;52.138;5.424;2023-10-31T07:51:02;6.38;;;1.13;;
71771;SDS011;59606;52.138;5.424;2023-10-31T07:53:29;1.17;;;0.50;;
71771;SDS011;59606;52.138;5.424;2023-10-31T07:55:56;3.95;;;0.80;;
71771;SDS011;59606;52.138;5.424;2023-10-31T07:58:23;4.30;;;0.73;;
71771;SDS011;59606;52.138;5.424;2023-10-31T08:00:49;3.30;;;0.75;;
71771;SDS011;59606;52.138;5.424;2023-10-31T08:03:16;2.00;;;0.90;;
71771;SDS011;59606;52.138;5.424;2023-10-31T08:05:42;1.35;;;0.80;;
71771;SDS011;59606;52.138;5.424;2023-10-31T08:08:09;3.92;;;1.20;;
71771;SDS011;59606;52.138;5.424;2023-10-31T08:10:35;3.50;;;0.80;;
71771;SDS011;59606;52.138;5.424;2023-10-31T08:13:02;7.18;;;1.13;;
71771;SDS011;59606;52.138;5.424;2023-10-31T08:15:28;2.10;;;0.90;;
71771;SDS011;59606;52.138;5.424;2023-10-31T08:17:55;3.50;;;1.10;;
71771;SDS011;59606;52.138;5.424;2023-10-31T08:20:21;4.18;;;1.23;;
71771;SDS011;59606;52.138;5.424;2023-10-31T08:22:48;4.10;;;0.90;;
71771;SDS011;59606;52.138;5.424;2023-10-31T08:25:14;6.63;;;1.45;;
71771;SDS011;59606;52.138;5.424;2023-10-31T08:27:41;5.07;;;1.35;;
71771;SDS011;59606;52.138;5.424;2023-10-31T08:30:08;4.47;;;1.00;;
71771;SDS011;59606;52.138;5.424;2023-10-31T08:32:37;4.68;;;1.02;;
71771;SDS011;59606;52.138;5.424;2023-10-31T08:35:03;5.77;;;1.33;;
71771;SDS011;59606;52.138;5.424;2023-10-31T08:37:31;5.43;;;1.20;;
71771;SDS011;59606;52.138;5.424;2023-10-31T08:39:57;7.22;;;1.30;;
71771;SDS011;59606;52.138;5.424;2023-10-31T08:42:24;10.23;;;1.67;;
71771;SDS011;59606;52.138;5.424;2023-10-31T08:44:50;4.85;;;1.67;;
71771;SDS011;59606;52.138;5.424;2023-10-31T08:47:17;2.80;;;1.03;;
71771;SDS011;59606;52.138;5.424;2023-10-31T08:49:44;6.47;;;1.42;;
71771;SDS011;59606;52.138;5.424;2023-10-31T08:52:11;6.10;;;1.70;;
71771;SDS011;59606;52.138;5.424;2023-10-31T08:54:38;4.03;;;1.50;;
71771;SDS011;59606;52.138;5.424;2023-10-31T08:57:04;8.73;;;2.38;;
71771;SDS011;59606;52.138;5.424;2023-10-31T08:59:31;6.20;;;1.43;;
71771;SDS011;59606;52.138;5.424;2023-10-31T09:01:57;4.28;;;1.13;;
71771;SDS011;59606;52.138;5.424;2023-10-31T09:04:24;4.60;;;1.35;;
71771;SDS011;59606;52.138;5.424;2023-10-31T09:06:50;5.30;;;1.70;;
71771;SDS011;59606;52.138;5.424;2023-10-31T09:09:18;4.90;;;1.92;;
71771;SDS011;59606;52.138;5.424;2023-10-31T09:11:44;3.57;;;1.30;;
71771;SDS011;59606;52.138;5.424;2023-10-31T09:14:10;5.78;;;1.42;;
71771;SDS011;59606;52.138;5.424;2023-10-31T09:16:37;6.90;;;1.10;;
71771;SDS011;59606;52.138;5.424;2023-10-31T09:19:03;3.58;;;1.35;;
71771;SDS011;59606;52.138;5.424;2023-10-31T09:21:30;5.80;;;1.50;;
71771;SDS011;59606;52.138;5.424;2023-10-31T09:23:56;7.27;;;1.67;;
71771;SDS011;59606;52.138;5.424;2023-10-31T09:26:23;4.60;;;1.20;;
71771;SDS011;59606;52.138;5.424;2023-10-31T09:28:49;7.10;;;1.77;;
71771;SDS011;59606;52.138;5.424;2023-10-31T09:31:17;5.10;;;1.38;;
71771;SDS011;59606;52.138;5.424;2023-10-31T09:33:47;7.75;;;1.88;;
71771;SDS011;59606;52.138;5.424;2023-10-31T09:36:14;6.97;;;1.50;;
71771;SDS011;59606;52.138;5.424;2023-10-31T09:38:41;4.00;;;1.35;;
71771;SDS011;59606;52.138;5.424;2023-10-31T09:41:07;5.03;;;2.08;;
71771;SDS011;59606;52.138;5.424;2023-10-31T09:43:34;4.28;;;1.65;;
71771;SDS011;59606;52.138;5.424;2023-10-31T09:46:00;9.02;;;1.80;;
71771;SDS011;59606;52.138;5.424;2023-10-31T09:48:28;6.90;;;1.60;;
71771;SDS011;59606;52.138;5.424;2023-10-31T09:50:54;8.93;;;2.20;;
71771;SDS011;59606;52.138;5.424;2023-10-31T09:53:22;6.05;;;2.00;;
71771;SDS011;59606;52.138;5.424;2023-10-31T09:55:50;4.10;;;1.90;;
71771;SDS011;59606;52.138;5.424;2023-10-31T09:58:19;6.82;;;2.10;;
71771;SDS011;59606;52.138;5.424;2023-10-31T10:00:46;3.97;;;2.07;;
71771;SDS011;59606;52.138;5.424;2023-10-31T10:03:12;6.38;;;1.58;;
71771;SDS011;59606;52.138;5.424;2023-10-31T10:05:39;3.38;;;1.75;;
71771;SDS011;59606;52.138;5.424;2023-10-31T10:08:09;7.05;;;1.67;;
71771;SDS011;59606;52.138;5.424;2023-10-31T10:10:35;5.68;;;1.88;;
71771;SDS011;59606;52.138;5.424;2023-10-31T10:13:02;6.33;;;1.97;;
71771;SDS011;59606;52.138;5.424;2023-10-31T10:15:29;7.70;;;1.45;;
71771;SDS011;59606;52.138;5.424;2023-10-31T10:17:56;6.53;;;1.60;;
71771;SDS011;59606;52.138;5.424;2023-10-31T10:20:23;7.95;;;2.33;;
71771;SDS011;59606;52.138;5.424;2023-10-31T10:22:49;5.60;;;1.92;;
71771;SDS011;59606;52.138;5.424;2023-10-31T10:25:17;7.80;;;2.07;;
71771;SDS011;59606;52.138;5.424;2023-10-31T10:27:47;5.97;;;1.45;;
71771;SDS011;59606;52.138;5.424;2023-10-31T10:30:14;9.43;;;2.03;;
71771;SDS011;59606;52.138;5.424;2023-10-31T10:32:41;7.60;;;1.55;;
71771;SDS011;59606;52.138;5.424;2023-10-31T10:35:08;7.78;;;1.90;;
71771;SDS011;59606;52.138;5.424;2023-10-31T10:37:38;5.97;;;1.70;;
71771;SDS011;59606;52.138;5.424;2023-10-31T10:40:07;4.32;;;1.90;;
71771;SDS011;59606;52.138;5.424;2023-10-31T10:42:44;8.60;;;1.92;;
71771;SDS011;59606;52.138;5.424;2023-10-31T10:45:13;5.57;;;1.48;;
71771;SDS011;59606;52.138;5.424;2023-10-31T10:47:45;7.50;;;1.85;;
71771;SDS011;59606;52.138;5.424;2023-10-31T10:50:13;4.83;;;2.00;;
71771;SDS011;59606;52.138;5.424;2023-10-31T10:53:23;6.72;;;1.80;;
71771;SDS011;59606;52.138;5.424;2023-10-31T10:55:51;5.25;;;1.55;;
71771;SDS011;59606;52.138;5.424;2023-10-31T11:00:58;3.88;;;1.60;;
71771;SDS011;59606;52.138;5.424;2023-10-31T11:03:25;7.60;;;1.90;;
71771;SDS011;59606;52.138;5.424;2023-10-31T11:05:54;8.57;;;1.92;;
71771;SDS011;59606;52.138;5.424;2023-10-31T11:08:20;5.60;;;1.65;;
71771;SDS011;59606;52.138;5.424;2023-10-31T11:10:51;7.13;;;1.92;;
71771;SDS011;59606;52.138;5.424;2023-10-31T11:13:21;10.27;;;1.98;;
71771;SDS011;59606;52.138;5.424;2023-10-31T11:15:49;3.73;;;1.50;;
71771;SDS011;59606;52.138;5.424;2023-10-31T11:18:18;6.70;;;1.83;;
71771;SDS011;59606;52.138;5.424;2023-10-31T11:20:45;6.00;;;1.25;;
71771;SDS011;59606;52.138;5.424;2023-10-31T11:23:12;6.43;;;1.88;;
71771;SDS011;59606;52.138;5.424;2023-10-31T11:25:43;3.55;;;1.92;;
71771;SDS011;59606;52.138;5.424;2023-10-31T11:28:14;5.23;;;1.60;;
71771;SDS011;59606;52.138;5.424;2023-10-31T11:30:43;6.57;;;1.95;;
71771;SDS011;59606;52.138;5.424;2023-10-31T11:33:12;5.40;;;1.85;;
71771;SDS011;59606;52.138;5.424;2023-10-31T11:35:39;3.78;;;2.45;;
71771;SDS011;59606;52.138;5.424;2023-10-31T11:38:08;6.05;;;1.98;;
71771;SDS011;59606;52.138;5.424;2023-10-31T11:40:57;6.97;;;1.80;;
71771;SDS011;59606;52.138;5.424;2023-10-31T11:46:22;3.42;;;1.20;;
71771;SDS011;59606;52.138;5.424;2023-10-31T11:48:53;6.10;;;1.30;;
71771;SDS011;59606;52.138;5.424;2023-10-31T11:51:22;5.68;;;1.52;;
71771;SDS011;59606;52.138;5.424;2023-10-31T11:53:49;5.20;;;1.80;;
71771;SDS011;59606;52.138;5.424;2023-10-31T11:56:16;5.68;;;1.67;;
71771;SDS011;59606;52.138;5.424;2023-10-31T11:58:43;5.90;;;1.95;;
71771;SDS011;59606;52.138;5.424;2023-10-31T12:01:09;4.68;;;2.05;;
71771;SDS011;59606;52.138;5.424;2023-10-31T12:06:06;7.33;;;2.60;;
71771;SDS011;59606;52.138;5.424;2023-10-31T12:08:35;9.43;;;2.58;;
71771;SDS011;59606;52.138;5.424;2023-10-31T12:11:06;5.18;;;2.60;;
71771;SDS011;59606;52.138;5.424;2023-10-31T12:13:37;8.50;;;2.88;;
71771;SDS011;59606;52.138;5.424;2023-10-31T12:16:09;11.27;;;3.90;;
71771;SDS011;59606;52.138;5.424;2023-10-31T12:18:37;13.60;;;3.77;;
71771;SDS011;59606;52.138;5.424;2023-10-31T12:21:06;11.85;;;4.60;;
71771;SDS011;59606;52.138;5.424;2023-10-31T12:23:35;12.98;;;6.18;;
71771;SDS011;59606;52.138;5.424;2023-10-31T12:26:02;12.80;;;6.65;;
71771;SDS011;59606;52.138;5.424;2023-10-31T12:28:28;13.95;;;6.45;;
71771;SDS011;59606;52.138;5.424;2023-10-31T12:30:55;16.87;;;8.77;;
71771;SDS011;59606;52.138;5.424;2023-10-31T12:33:24;18.73;;;9.23;;
71771;SDS011;59606;52.138;5.424;2023-10-31T12:35:55;21.90;;;10.20;;
71771;SDS011;59606;52.138;5.424;2023-10-31T12:38:23;23.85;;;10.30;;
71771;SDS011;59606;52.138;5.424;2023-10-31T12:40:50;23.95;;;10.73;;
71771;SDS011;59606;52.138;5.424;2023-10-31T12:43:18;23.60;;;9.90;;
71771;SDS011;59606;52.138;5.424;2023-10-31T12:45:45;25.02;;;10.05;;
71771;SDS011;59606;52.138;5.424;2023-10-31T12:48:13;30.48;;;10.85;;
71771;SDS011;59606;52.138;5.424;2023-10-31T12:50:39;23.05;;;10.07;;
71771;SDS011;59606;52.138;5.424;2023-10-31T12:53:06;24.60;;;10.88;;
71771;SDS011;59606;52.138;5.424;2023-10-31T12:55:40;32.47;;;11.77;;
71771;SDS011;59606;52.138;5.424;2023-10-31T12:58:08;27.85;;;11.80;;
71771;SDS011;59606;52.138;5.424;2023-10-31T13:00:36;47.47;;;19.02;;
71771;SDS011;59606;52.138;5.424;2023-10-31T13:03:07;31.67;;;13.98;;
71771;SDS011;59606;52.138;5.424;2023-10-31T13:05:35;28.88;;;11.90;;
71771;SDS011;59606;52.138;5.424;2023-10-31T13:08:12;35.00;;;14.67;;
71771;SDS011;59606;52.138;5.424;2023-10-31T13:10:41;30.45;;;12.00;;
71771;SDS011;59606;52.138;5.424;2023-10-31T13:13:09;25.23;;;11.32;;
71771;SDS011;59606;52.138;5.424;2023-10-31T13:15:35;30.73;;;13.93;;
71771;SDS011;59606;52.138;5.424;2023-10-31T13:18:04;28.38;;;12.27;;
71771;SDS011;59606;52.138;5.424;2023-10-31T13:20:30;29.13;;;10.80;;
71771;SDS011;59606;52.138;5.424;2023-10-31T13:22:58;28.50;;;10.68;;
71771;SDS011;59606;52.138;5.424;2023-10-31T13:25:24;29.27;;;10.82;;
71771;SDS011;59606;52.138;5.424;2023-10-31T13:27:51;24.33;;;10.40;;
71771;SDS011;59606;52.138;5.424;2023-10-31T13:30:20;27.17;;;11.10;;
71771;SDS011;59606;52.138;5.424;2023-10-31T13:32:47;24.20;;;9.53;;
71771;SDS011;59606;52.138;5.424;2023-10-31T13:35:14;24.17;;;10.38;;
71771;SDS011;59606;52.138;5.424;2023-10-31T13:37:41;23.13;;;10.13;;
71771;SDS011;59606;52.138;5.424;2023-10-31T13:40:08;25.95;;;9.35;;
71771;SDS011;59606;52.138;5.424;2023-10-31T13:42:35;20.60;;;9.95;;
71771;SDS011;59606;52.138;5.424;2023-10-31T13:45:02;22.20;;;9.40;;
71771;SDS011;59606;52.138;5.424;2023-10-31T13:47:31;23.17;;;9.32;;
71771;SDS011;59606;52.138;5.424;2023-10-31T13:49:58;25.17;;;11.32;;
71771;SDS011;59606;52.138;5.424;2023-10-31T13:52:25;19.92;;;9.77;;
71771;SDS011;59606;52.138;5.424;2023-10-31T13:54:52;25.42;;;10.63;;
71771;SDS011;59606;52.138;5.424;2023-10-31T13:57:18;23.43;;;10.23;;
71771;SDS011;59606;52.138;5.424;2023-10-31T13:59:45;22.42;;;8.95;;
71771;SDS011;59606;52.138;5.424;2023-10-31T14:02:11;18.45;;;8.68;;
71771;SDS011;59606;52.138;5.424;2023-10-31T14:04:38;19.27;;;7.93;;
71771;SDS011;59606;52.138;5.424;2023-10-31T14:07:04;20.45;;;8.43;;
71771;SDS011;59606;52.138;5.424;2023-10-31T14:09:31;21.17;;;8.40;;
71771;SDS011;59606;52.138;5.424;2023-10-31T14:11:59;18.92;;;7.82;;
71771;SDS011;59606;52.138;5.424;2023-10-31T14:14:26;17.13;;;7.57;;
71771;SDS011;59606;52.138;5.424;2023-10-31T14:16:52;15.30;;;7.40;;
71771;SDS011;59606;52.138;5.424;2023-10-31T14:19:21;17.88;;;9.18;;
71771;SDS011;59606;52.138;5.424;2023-10-31T14:21:48;19.07;;;7.97;;
71771;SDS011;59606;52.138;5.424;2023-10-31T14:24:15;17.20;;;7.90;;
71771;SDS011;59606;52.138;5.424;2023-10-31T14:26:41;17.05;;;8.40;;
71771;SDS011;59606;52.138;5.424;2023-10-31T14:29:10;18.83;;;8.20;;
71771;SDS011;59606;52.138;5.424;2023-10-31T14:31:41;15.95;;;8.18;;
71771;SDS011;59606;52.138;5.424;2023-10-31T14:34:09;17.40;;;8.70;;
71771;SDS011;59606;52.138;5.424;2023-10-31T14:36:35;15.68;;;8.85;;
71771;SDS011;59606;52.138;5.424;2023-10-31T14:39:02;21.05;;;8.75;;
71771;SDS011;59606;52.138;5.424;2023-10-31T14:41:28;21.08;;;9.32;;
71771;SDS011;59606;52.138;5.424;2023-10-31T14:44:00;18.63;;;9.30;;
71771;SDS011;59606;52.138;5.424;2023-10-31T14:46:28;20.07;;;8.97;;
71771;SDS011;59606;52.138;5.424;2023-10-31T14:48:55;21.58;;;9.40;;
71771;SDS011;59606;52.138;5.424;2023-10-31T14:51:22;17.33;;;9.15;;